Time;durP1;ratioP1;P1;durP2;ratioP2;P2;SDS_P1;SDS_P2;PMS_P1;PMS_P2;Temp;Humidity;BMP_temperature;BMP_pressure;BME280_temperature;BME280_humidity;BME280_pressure;Samples;Min_cycle;Max_cycle;Signal;HPM_P1;HPM_P2
2021/01/22 00:00:50;;;;;;;0.80;0.80;;;10.70;99.90;;;;;;5089808;28;20103;-68
2021/01/22 00:03:16;;;;;;;1.63;0.80;;;10.50;99.90;;;;;;5090556;28;20032;-68
2021/01/22 00:05:41;;;;;;;1.35;0.70;;;10.40;99.90;;;;;;5091220;28;20028;-66
2021/01/22 00:08:07;;;;;;;2.53;1.00;;;10.40;99.90;;;;;;5091458;28;20048;-67
2021/01/22 00:10:33;;;;;;;1.67;1.02;;;10.20;99.90;;;;;;5091498;28;20062;-69
2021/01/22 00:12:58;;;;;;;1.42;0.80;;;10.10;99.90;;;;;;5090532;28;20032;-70
2021/01/22 00:15:24;;;;;;;1.48;0.80;;;9.90;99.90;;;;;;5073180;28;20020;-69
2021/01/22 00:17:50;;;;;;;2.08;0.80;;;9.80;99.90;;;;;;5091394;28;20024;-69
2021/01/22 00:20:15;;;;;;;2.00;0.80;;;9.80;99.90;;;;;;5091416;28;20731;-69
2021/01/22 00:22:41;;;;;;;2.83;1.10;;;9.70;99.90;;;;;;5090770;28;20028;-68
2021/01/22 00:25:07;;;;;;;0.80;0.80;;;9.60;99.90;;;;;;5090980;28;20378;-69
2021/01/22 00:27:33;;;;;;;0.93;0.82;;;9.60;99.90;;;;;;5091069;28;20028;-67
2021/01/22 00:29:59;;;;;;;1.30;0.70;;;9.60;99.90;;;;;;5091381;28;20027;-69
2021/01/22 00:32:24;;;;;;;1.13;0.80;;;9.50;99.90;;;;;;5091460;28;20036;-69
2021/01/22 00:34:50;;;;;;;1.83;0.60;;;9.50;99.90;;;;;;5090580;28;20032;-68
2021/01/22 00:37:16;;;;;;;0.82;0.68;;;9.50;99.90;;;;;;5091187;28;20039;-69
2021/01/22 00:39:41;;;;;;;1.48;0.80;;;9.40;99.90;;;;;;5091230;28;20024;-69
2021/01/22 00:42:07;;;;;;;0.70;0.68;;;9.40;99.90;;;;;;5091207;28;20480;-68
2021/01/22 00:44:33;;;;;;;0.70;0.60;;;9.40;99.90;;;;;;5090444;28;20035;-67
2021/01/22 00:46:58;;;;;;;1.00;0.90;;;9.40;99.90;;;;;;5091152;28;20496;-68
2021/01/22 00:49:24;;;;;;;1.35;0.65;;;9.40;99.90;;;;;;5091323;28;20028;-69
2021/01/22 00:51:50;;;;;;;0.77;0.50;;;9.40;99.90;;;;;;5091129;28;20038;-69
2021/01/22 00:54:15;;;;;;;0.50;0.50;;;9.30;99.90;;;;;;5090304;28;20016;-70
2021/01/22 00:56:41;;;;;;;0.50;0.50;;;9.20;99.90;;;;;;5090934;28;20040;-68
2021/01/22 00:59:06;;;;;;;0.30;0.30;;;9.10;99.90;;;;;;5091209;28;20135;-69
2021/01/22 01:01:33;;;;;;;1.75;1.05;;;9.20;99.90;;;;;;5091111;28;20016;-68
2021/01/22 01:03:58;;;;;;;0.45;0.38;;;9.20;99.90;;;;;;5090501;28;20470;-68
2021/01/22 01:06:24;;;;;;;0.65;0.60;;;9.30;99.90;;;;;;5092077;28;20115;-69
2021/01/22 01:08:50;;;;;;;0.60;0.60;;;9.30;99.90;;;;;;5094777;28;20024;-69
2021/01/22 01:11:16;;;;;;;0.57;0.43;;;9.40;99.90;;;;;;5094707;28;20060;-68
2021/01/22 01:13:42;;;;;;;0.50;0.47;;;9.30;99.90;;;;;;5093819;28;20048;-68
2021/01/22 01:16:07;;;;;;;1.02;0.50;;;9.30;99.90;;;;;;5094476;28;20024;-68
2021/01/22 01:18:33;;;;;;;0.30;0.30;;;9.30;99.90;;;;;;5094414;28;20370;-69
2021/01/22 01:20:59;;;;;;;0.77;0.60;;;9.30;99.90;;;;;;5094537;28;20490;-69
2021/01/22 01:23:24;;;;;;;0.50;0.40;;;9.30;99.90;;;;;;5075721;28;20366;-69
2021/01/22 01:25:50;;;;;;;0.73;0.50;;;9.40;99.90;;;;;;5094072;28;20036;-69
2021/01/22 01:28:16;;;;;;;0.30;0.30;;;9.30;99.90;;;;;;5093063;28;20035;-68
2021/01/22 01:30:41;;;;;;;0.52;0.52;;;9.30;99.90;;;;;;5094234;28;20099;-68
2021/01/22 01:33:07;;;;;;;0.50;0.50;;;9.40;99.90;;;;;;5093574;28;20382;-68
2021/01/22 01:35:33;;;;;;;0.82;0.40;;;9.40;99.90;;;;;;5093988;28;20024;-69
2021/01/22 01:37:58;;;;;;;1.13;0.40;;;9.50;99.90;;;;;;5076065;28;20020;-68
2021/01/22 01:40:24;;;;;;;2.95;0.50;;;9.50;99.90;;;;;;5093078;28;20750;-69
2021/01/22 01:42:50;;;;;;;0.65;0.50;;;9.60;99.90;;;;;;5095417;28;20062;-68
2021/01/22 01:45:18;;;;;;;0.85;0.50;;;9.60;99.90;;;;;;5093853;28;20020;-69
2021/01/22 01:47:44;;;;;;;0.88;0.70;;;9.60;99.90;;;;;;5093997;28;20497;-69
2021/01/22 01:50:11;;;;;;;0.88;0.55;;;9.50;99.90;;;;;;5094154;28;20067;-69
2021/01/22 01:52:37;;;;;;;0.93;0.50;;;9.60;99.90;;;;;;5093589;28;20662;-70
2021/01/22 01:55:04;;;;;;;0.80;0.60;;;9.60;99.90;;;;;;5093739;28;20035;-69
2021/01/22 01:57:30;;;;;;;1.38;0.70;;;9.60;99.90;;;;;;5093751;28;20024;-70
2021/01/22 01:59:58;;;;;;;0.93;0.40;;;9.50;99.90;;;;;;5093817;28;20450;-70
2021/01/22 02:02:25;;;;;;;0.85;0.57;;;9.50;99.90;;;;;;5094303;28;20111;-70
2021/01/22 02:04:50;;;;;;;1.15;0.73;;;9.60;99.90;;;;;;5094094;28;20070;-68
2021/01/22 02:07:16;;;;;;;0.75;0.52;;;9.80;99.90;;;;;;5093927;28;20028;-67
2021/01/22 02:09:42;;;;;;;1.75;0.50;;;9.70;99.90;;;;;;5093906;28;20059;-69
2021/01/22 02:12:08;;;;;;;1.17;0.60;;;9.80;99.90;;;;;;5093754;28;20016;-68
2021/01/22 02:14:36;;;;;;;0.90;0.55;;;9.80;99.90;;;;;;5092536;28;20020;-69
2021/01/22 02:17:02;;;;;;;1.85;0.60;;;9.80;99.90;;;;;;5093600;28;20378;-68
2021/01/22 02:20:00;;;;;;;1.48;0.90;;;9.90;99.90;;;;;;5092836;28;20521;-69
2021/01/22 02:22:26;;;;;;;3.53;0.70;;;10.00;99.90;;;;;;5073254;28;20052;-68
2021/01/22 02:24:54;;;;;;;3.67;0.65;;;9.90;99.90;;;;;;5072195;28;20063;-69
2021/01/22 02:27:20;;;;;;;2.58;0.80;;;9.80;99.90;;;;;;5072972;28;20071;-69
2021/01/22 02:29:46;;;;;;;1.10;0.60;;;9.80;99.90;;;;;;5072580;28;20028;-69
2021/01/22 02:32:12;;;;;;;1.75;0.85;;;9.80;99.90;;;;;;5078800;28;20027;-68
2021/01/22 02:34:40;;;;;;;1.73;0.60;;;9.80;99.90;;;;;;5092262;28;20055;-68
2021/01/22 02:37:11;;;;;;;4.07;0.80;;;9.70;99.90;;;;;;5092713;28;20067;-70
2021/01/22 02:39:47;;;;;;;2.30;0.80;;;9.70;99.90;;;;;;5093022;28;20108;-68
2021/01/22 02:42:14;;;;;;;1.73;0.75;;;9.60;99.90;;;;;;5092833;28;20031;-67
2021/01/22 02:44:40;;;;;;;4.18;0.68;;;9.70;99.90;;;;;;5073546;28;20059;-68
2021/01/22 02:47:10;;;;;;;2.85;0.63;;;9.70;99.90;;;;;;5092382;28;20064;-67
2021/01/22 02:49:37;;;;;;;2.42;0.80;;;9.60;99.90;;;;;;5092701;28;20020;-67
2021/01/22 02:52:04;;;;;;;2.17;0.80;;;9.60;99.90;;;;;;5092522;28;20016;-67
2021/01/22 02:54:30;;;;;;;1.45;0.70;;;9.60;99.90;;;;;;5073826;28;20021;-67
2021/01/22 02:56:56;;;;;;;3.67;0.95;;;9.70;99.90;;;;;;5092677;28;20023;-70
2021/01/22 02:59:36;;;;;;;3.80;0.85;;;9.60;99.90;;;;;;5074532;28;20058;-68
2021/01/22 03:02:26;;;;;;;2.22;0.88;;;9.60;99.90;;;;;;5092844;28;20032;-68
2021/01/22 03:04:54;;;;;;;2.05;0.77;;;9.60;99.90;;;;;;5091503;28;20092;-69
2021/01/22 03:07:29;;;;;;;4.80;0.93;;;9.50;99.90;;;;;;5092368;28;20032;-68
2021/01/22 03:09:59;;;;;;;4.78;0.90;;;9.40;99.90;;;;;;5092173;28;20020;-69
2021/01/22 03:12:29;;;;;;;7.78;1.15;;;9.50;99.90;;;;;;5092417;28;20020;-69
2021/01/22 03:14:58;;;;;;;10.93;1.58;;;9.40;99.90;;;;;;5091219;28;20028;-68
2021/01/22 03:17:24;;;;;;;2.17;0.80;;;9.40;99.90;;;;;;5073842;28;20478;-68
2021/01/22 03:19:50;;;;;;;7.45;1.52;;;9.50;99.90;;;;;;5092213;28;20026;-67
2021/01/22 03:22:16;;;;;;;4.88;1.00;;;9.40;99.90;;;;;;5073813;28;20723;-66
2021/01/22 03:24:42;;;;;;;4.60;1.05;;;9.40;99.90;;;;;;5091279;28;20028;-69
2021/01/22 03:27:08;;;;;;;2.53;1.00;;;9.30;99.90;;;;;;5072502;28;20055;-69
2021/01/22 03:29:35;;;;;;;3.13;1.00;;;9.30;99.90;;;;;;5090990;28;20103;-67
2021/01/22 03:32:01;;;;;;;3.75;0.80;;;9.30;99.90;;;;;;5091825;28;20050;-68
2021/01/22 03:34:27;;;;;;;3.13;0.80;;;9.30;99.90;;;;;;5090466;28;20095;-68
2021/01/22 03:36:57;;;;;;;1.77;0.60;;;9.30;99.90;;;;;;5091621;28;20062;-70
2021/01/22 03:39:23;;;;;;;5.38;0.95;;;9.40;99.90;;;;;;5091797;28;20551;-69
2021/01/22 03:41:49;;;;;;;4.20;0.80;;;9.40;99.90;;;;;;5091702;28;20024;-68
2021/01/22 03:44:16;;;;;;;5.57;1.10;;;9.60;99.90;;;;;;5090753;28;20016;-69
2021/01/22 03:46:43;;;;;;;3.22;0.90;;;9.60;99.90;;;;;;5091578;28;20024;-68
2021/01/22 03:49:09;;;;;;;5.18;1.13;;;9.70;99.90;;;;;;5091616;28;20498;-68
2021/01/22 03:51:35;;;;;;;5.90;1.35;;;9.70;99.90;;;;;;5091615;28;20055;-68
2021/01/22 03:54:01;;;;;;;4.82;1.13;;;9.80;99.90;;;;;;5091209;28;20056;-69
2021/01/22 03:56:26;;;;;;;2.92;0.90;;;9.90;99.90;;;;;;5091633;28;20024;-68
2021/01/22 03:58:52;;;;;;;1.85;0.98;;;9.90;99.90;;;;;;5091405;28;20031;-69
2021/01/22 04:01:22;;;;;;;3.97;1.33;;;9.90;99.90;;;;;;5073385;28;20024;-70
2021/01/22 04:03:48;;;;;;;3.33;1.10;;;9.90;99.90;;;;;;5091019;28;20512;-68
2021/01/22 04:06:14;;;;;;;2.70;0.85;;;9.80;99.90;;;;;;5091351;28;20419;-66
2021/01/22 04:08:39;;;;;;;2.65;0.85;;;9.80;99.90;;;;;;5091442;28;20031;-67
2021/01/22 04:11:06;;;;;;;2.05;1.20;;;9.70;99.90;;;;;;5091522;28;20399;-68
2021/01/22 04:13:31;;;;;;;1.85;0.75;;;9.80;99.90;;;;;;5090371;28;20024;-69
2021/01/22 04:15:57;;;;;;;3.33;0.90;;;9.70;99.90;;;;;;5091226;28;20487;-68
2021/01/22 04:18:23;;;;;;;4.55;1.05;;;9.70;99.90;;;;;;5091473;28;20024;-69
2021/01/22 04:20:49;;;;;;;2.88;0.60;;;9.70;99.90;;;;;;5091625;28;20043;-69
2021/01/22 04:23:14;;;;;;;0.98;0.70;;;9.60;99.90;;;;;;5094875;28;20032;-68
2021/01/22 04:25:40;;;;;;;3.75;0.95;;;9.70;99.90;;;;;;5093202;28;20111;-70
2021/01/22 04:28:05;;;;;;;1.70;0.73;;;9.70;99.90;;;;;;5091082;28;20389;-71
2021/01/22 04:30:31;;;;;;;1.15;0.63;;;9.80;99.90;;;;;;5090229;28;20031;-69
2021/01/22 04:32:57;;;;;;;2.05;0.47;;;9.90;99.90;;;;;;5090637;28;20042;-70
2021/01/22 04:35:22;;;;;;;2.42;0.40;;;9.90;99.90;;;;;;5090979;28;20028;-70
2021/01/22 04:37:48;;;;;;;2.00;0.45;;;9.90;99.90;;;;;;5091141;28;20028;-70
2021/01/22 04:40:15;;;;;;;3.35;0.57;;;9.90;99.90;;;;;;5091262;28;20028;-67
2021/01/22 04:42:42;;;;;;;1.73;0.50;;;10.10;99.90;;;;;;5093716;28;20028;-68
2021/01/22 04:45:10;;;;;;;1.95;0.40;;;10.00;99.90;;;;;;5094765;28;20056;-68
2021/01/22 04:47:40;;;;;;;2.10;0.55;;;10.00;99.90;;;;;;5094895;28;20359;-69
2021/01/22 04:50:07;;;;;;;1.40;0.50;;;10.10;99.90;;;;;;5094313;28;20369;-67
2021/01/22 04:52:36;;;;;;;0.30;0.30;;;10.10;99.90;;;;;;5094624;28;20024;-68
2021/01/22 04:55:04;;;;;;;1.00;0.40;;;10.10;99.90;;;;;;5094365;28;20146;-68
2021/01/22 04:57:31;;;;;;;1.05;0.40;;;10.10;99.90;;;;;;5094933;28;20134;-69
2021/01/22 04:59:57;;;;;;;1.50;0.40;;;10.20;99.90;;;;;;5094787;28;20020;-69
2021/01/22 05:02:23;;;;;;;2.60;0.60;;;10.20;99.90;;;;;;5094645;28;20039;-69
2021/01/22 05:04:52;;;;;;;1.63;0.47;;;10.10;99.90;;;;;;5094024;28;20024;-67
2021/01/22 05:07:21;;;;;;;1.83;0.45;;;10.10;99.90;;;;;;5097475;22;20037;-69
2021/01/22 05:09:48;;;;;;;0.90;0.52;;;10.00;99.90;;;;;;5046394;28;20045;-69
2021/01/22 05:12:13;;;;;;;2.00;0.50;;;10.00;99.90;;;;;;5047631;28;20076;-70
2021/01/22 05:14:39;;;;;;;1.85;0.50;;;10.00;99.90;;;;;;5055282;28;20017;-70
2021/01/22 05:17:07;;;;;;;1.45;0.40;;;10.00;99.90;;;;;;5059803;28;20112;-71
2021/01/22 05:19:35;;;;;;;1.67;0.73;;;10.00;99.90;;;;;;5057765;28;20556;-71
2021/01/22 05:22:01;;;;;;;0.30;0.30;;;9.90;99.90;;;;;;5056545;28;20029;-71
2021/01/22 05:24:28;;;;;;;0.65;0.57;;;9.90;99.90;;;;;;5054271;28;20025;-71
2021/01/22 05:27:04;;;;;;;1.05;0.35;;;9.90;99.90;;;;;;5056840;28;20029;-71
2021/01/22 05:29:31;;;;;;;1.52;0.38;;;9.80;99.90;;;;;;5018037;28;20479;-72
2021/01/22 05:31:57;;;;;;;0.45;0.30;;;9.70;99.90;;;;;;5015163;28;20097;-69
2021/01/22 05:34:43;;;;;;;2.35;0.40;;;9.80;99.90;;;;;;5027466;28;20028;-70
2021/01/22 05:37:08;;;;;;;0.63;0.30;;;9.90;99.90;;;;;;5058747;28;20112;-69
2021/01/22 05:39:34;;;;;;;0.57;0.40;;;9.90;99.90;;;;;;5054596;28;20118;-71
2021/01/22 05:42:00;;;;;;;1.38;0.40;;;9.90;99.90;;;;;;5048491;28;20032;-71
2021/01/22 05:44:25;;;;;;;1.33;0.60;;;9.90;99.90;;;;;;5033436;28;20064;-71
2021/01/22 05:47:06;;;;;;;0.47;0.40;;;10.00;99.90;;;;;;5033926;28;20691;-71
2021/01/22 05:49:32;;;;;;;3.88;0.35;;;10.00;99.90;;;;;;5042050;28;20032;-70
2021/01/22 05:51:58;;;;;;;0.93;0.55;;;9.90;99.90;;;;;;5054199;28;20342;-71
2021/01/22 05:54:37;;;;;;;3.30;0.40;;;9.90;99.90;;;;;;5051849;28;20025;-70
2021/01/22 05:57:04;;;;;;;4.28;0.38;;;9.90;99.90;;;;;;5053831;28;20031;-71
2021/01/22 05:59:31;;;;;;;1.00;0.40;;;9.90;99.90;;;;;;5052824;28;20044;-69
2021/01/22 06:01:56;;;;;;;1.90;0.50;;;9.90;99.90;;;;;;5053215;28;20035;-71
2021/01/22 06:04:22;;;;;;;1.23;0.43;;;9.80;99.90;;;;;;5053057;28;20096;-71
2021/01/22 06:06:50;;;;;;;0.52;0.32;;;9.70;99.90;;;;;;5054276;28;20021;-70
2021/01/22 06:09:32;;;;;;;1.35;0.30;;;9.70;99.90;;;;;;5031818;28;20025;-72
2021/01/22 06:12:00;;;;;;;1.42;0.43;;;9.70;99.90;;;;;;5034513;28;20030;-70
2021/01/22 06:14:32;;;;;;;1.10;0.40;;;9.60;99.90;;;;;;5034860;28;20610;-72
2021/01/22 06:16:58;;;;;;;3.45;0.50;;;9.50;99.90;;;;;;5053289;28;20047;-73
2021/01/22 06:19:26;;;;;;;1.23;0.45;;;9.50;99.90;;;;;;5053181;28;20444;-69
2021/01/22 06:22:01;;;;;;;3.63;0.70;;;9.50;99.90;;;;;;5036527;28;20045;-70
2021/01/22 06:24:27;;;;;;;1.98;0.60;;;9.50;99.90;;;;;;5034705;28;20021;-70
2021/01/22 06:26:55;;;;;;;3.25;0.40;;;9.50;99.90;;;;;;5041966;28;20027;-69
2021/01/22 06:29:22;;;;;;;0.68;0.35;;;9.40;99.90;;;;;;5054353;28;20025;-69
2021/01/22 06:31:48;;;;;;;3.00;0.70;;;9.50;99.90;;;;;;5053059;28;20053;-70
2021/01/22 06:34:15;;;;;;;2.20;0.75;;;9.50;99.90;;;;;;5052461;28;20425;-69
2021/01/22 06:36:43;;;;;;;7.07;0.65;;;9.50;99.90;;;;;;5052971;28;20060;-69
2021/01/22 06:39:10;;;;;;;1.02;0.50;;;9.50;99.90;;;;;;5053025;28;20074;-70
2021/01/22 06:41:36;;;;;;;1.23;0.50;;;9.40;99.90;;;;;;5049981;28;20405;-70
2021/01/22 06:44:03;;;;;;;0.88;0.45;;;9.30;99.90;;;;;;5032077;28;20442;-69
2021/01/22 06:46:32;;;;;;;1.35;0.40;;;9.60;99.90;;;;;;5033742;28;20097;-71
2021/01/22 06:49:03;;;;;;;0.77;0.32;;;9.60;99.90;;;;;;5035594;28;20026;-70
2021/01/22 06:51:33;;;;;;;4.03;0.63;;;9.50;99.90;;;;;;5035127;28;20030;-69
2021/01/22 06:54:05;;;;;;;1.17;0.43;;;9.50;99.90;;;;;;5032619;28;20551;-71
2021/01/22 06:56:32;;;;;;;2.97;0.50;;;9.30;99.90;;;;;;5033958;28;20112;-72
2021/01/22 06:59:29;;;;;;;1.55;0.40;;;9.30;99.90;;;;;;5035936;28;20028;-70
2021/01/22 07:01:56;;;;;;;3.40;0.68;;;9.50;99.90;;;;;;5034172;28;20104;-69
2021/01/22 07:04:34;;;;;;;2.00;0.50;;;9.50;99.90;;;;;;5045623;28;20546;-69
2021/01/22 07:07:09;;;;;;;1.50;0.63;;;9.50;99.90;;;;;;5052853;28;20091;-70
2021/01/22 07:09:41;;;;;;;3.58;0.70;;;9.40;99.90;;;;;;5052156;28;20021;-69
2021/01/22 07:12:14;;;;;;;3.05;0.70;;;9.40;99.90;;;;;;5050173;28;20029;-70
2021/01/22 07:14:46;;;;;;;2.42;1.20;;;9.40;99.90;;;;;;5052024;28;20036;-70
2021/01/22 07:17:29;;;;;;;3.25;0.50;;;9.50;99.90;;;;;;5052156;28;20025;-69
2021/01/22 07:19:59;;;;;;;;;;;9.50;99.90;;;;;;5054761;28;20024;-69
2021/01/22 07:22:28;;;;;;;1.50;0.47;;;9.50;99.90;;;;;;5058035;28;19919;-69
2021/01/22 07:24:56;;;;;;;5.55;0.70;;;9.50;99.90;;;;;;5051748;28;20025;-72
2021/01/22 07:27:21;;;;;;;1.00;0.70;;;9.60;99.90;;;;;;5051691;28;20039;-72
2021/01/22 07:30:07;;;;;;;1.60;0.55;;;9.60;99.90;;;;;;5054367;28;20016;-72
2021/01/22 07:32:33;;;;;;;6.45;0.65;;;9.70;99.90;;;;;;5025357;28;20022;-70
2021/01/22 07:35:00;;;;;;;0.80;0.60;;;9.60;99.90;;;;;;5036291;28;20081;-71
2021/01/22 07:37:26;;;;;;;3.17;1.10;;;9.60;99.90;;;;;;5035045;28;20029;-69
2021/01/22 07:39:54;;;;;;;1.05;0.68;;;9.70;99.90;;;;;;5036723;28;20499;-70
2021/01/22 07:42:26;;;;;;;2.50;0.77;;;9.70;99.90;;;;;;5023259;28;20032;-71
2021/01/22 07:44:53;;;;;;;2.30;0.73;;;9.80;99.90;;;;;;5050916;28;20025;-70
2021/01/22 07:47:29;;;;;;;0.65;0.50;;;10.00;99.90;;;;;;5036169;28;20033;-71
2021/01/22 07:50:04;;;;;;;0.45;0.40;;;10.90;99.90;;;;;;5039207;28;20503;-70
2021/01/22 07:52:30;;;;;;;2.67;0.70;;;11.80;99.90;;;;;;5039531;28;20048;-71
2021/01/22 07:54:56;;;;;;;0.80;0.50;;;12.50;99.90;;;;;;5040654;28;20029;-69
2021/01/22 07:57:24;;;;;;;1.58;0.60;;;13.20;99.90;;;;;;5041825;28;20029;-68
2021/01/22 07:59:51;;;;;;;0.85;0.43;;;13.60;99.90;;;;;;5036163;28;20022;-71
2021/01/22 08:02:20;;;;;;;1.95;0.60;;;14.80;98.80;;;;;;5034817;28;20029;-69
2021/01/22 08:04:55;;;;;;;1.00;0.65;;;15.30;97.10;;;;;;5047459;28;20372;-71
2021/01/22 08:07:35;;;;;;;1.25;0.60;;;14.80;97.00;;;;;;5051101;28;20521;-72
2021/01/22 08:10:01;;;;;;;2.78;0.50;;;13.40;98.90;;;;;;5050942;28;20128;-70
2021/01/22 08:12:27;;;;;;;1.50;0.90;;;12.90;99.90;;;;;;5035541;28;20451;-72
2021/01/22 08:14:53;;;;;;;1.10;0.90;;;13.10;99.90;;;;;;5030609;28;20506;-70
2021/01/22 08:17:19;;;;;;;2.92;0.73;;;12.50;99.90;;;;;;5037579;28;20096;-72
2021/01/22 08:19:45;;;;;;;3.08;0.50;;;12.30;99.90;;;;;;5049953;28;20025;-74
2021/01/22 08:22:15;;;;;;;20.13;17.95;;;12.10;99.90;;;;;;5055464;28;20022;-73
2021/01/22 08:24:50;;;;;;;1.63;0.68;;;12.90;99.90;;;;;;5038531;28;20057;-71
2021/01/22 08:27:22;;;;;;;0.55;0.40;;;13.40;99.90;;;;;;5039037;28;20036;-70
2021/01/22 08:29:48;;;;;;;2.30;1.87;;;14.20;98.10;;;;;;5038857;28;20021;-73
2021/01/22 08:32:17;;;;;;;1.10;1.00;;;15.10;97.40;;;;;;5038087;28;20287;-73
2021/01/22 08:34:44;;;;;;;3.38;1.73;;;16.00;94.50;;;;;;5038141;28;20021;-71
2021/01/22 08:37:10;;;;;;;1.80;0.65;;;17.80;91.60;;;;;;5039460;28;20451;-74
2021/01/22 08:39:58;;;;;;;3.40;0.47;;;18.00;88.10;;;;;;5040296;28;20049;-74
2021/01/22 08:42:28;;;;;;;1.65;1.55;;;16.30;91.80;;;;;;5049468;28;20036;-73
2021/01/22 08:44:56;;;;;;;1.80;0.60;;;16.50;92.20;;;;;;5037088;28;20055;-72
2021/01/22 08:47:23;;;;;;;1.45;0.40;;;16.60;90.50;;;;;;5037855;28;20541;-75
2021/01/22 08:49:52;;;;;;;0.88;0.40;;;16.90;88.80;;;;;;5049157;28;20103;-72
2021/01/22 08:52:18;;;;;;;2.25;0.60;;;16.30;90.40;;;;;;5058400;28;20025;-74
2021/01/22 08:54:44;;;;;;;3.70;1.27;;;15.90;91.80;;;;;;5058028;28;20138;-73
2021/01/22 08:57:10;;;;;;;1.48;0.75;;;16.30;90.90;;;;;;5057808;28;20386;-71
2021/01/22 08:59:56;;;;;;;1.02;0.40;;;15.70;91.60;;;;;;5058316;28;20379;-71
2021/01/22 09:02:44;;;;;;;2.55;0.43;;;17.00;88.90;;;;;;5058284;28;20021;-70
2021/01/22 09:05:18;;;;;;;0.70;0.50;;;16.40;90.80;;;;;;5057714;28;20033;-72
2021/01/22 09:07:44;;;;;;;2.22;0.50;;;17.00;87.80;;;;;;5055555;28;20037;-71
2021/01/22 09:10:29;;;;;;;2.13;0.52;;;16.50;89.40;;;;;;5038853;28;20021;-73
2021/01/22 09:13:07;;;;;;;0.95;0.45;;;16.10;89.90;;;;;;5040611;28;20028;-74
2021/01/22 09:15:32;;;;;;;1.65;0.60;;;14.50;92.60;;;;;;5039812;28;20022;-73
2021/01/22 09:17:58;;;;;;;1.02;0.50;;;13.60;94.50;;;;;;5036815;28;20033;-72
2021/01/22 09:20:26;;;;;;;0.40;0.40;;;13.20;95.40;;;;;;5053960;28;20033;-72
2021/01/22 09:22:54;;;;;;;1.23;0.50;;;13.40;95.40;;;;;;5058079;28;20028;-72
2021/01/22 09:25:26;;;;;;;1.55;0.32;;;13.70;95.20;;;;;;5058483;28;20029;-73
2021/01/22 09:27:51;;;;;;;0.75;0.55;;;14.10;94.70;;;;;;5056644;28;20033;-71
2021/01/22 09:30:22;;;;;;;1.92;0.68;;;14.10;94.70;;;;;;5044302;28;20044;-75
2021/01/22 09:32:53;;;;;;;0.93;0.40;;;14.60;94.20;;;;;;5034099;28;20017;-73
2021/01/22 09:35:20;;;;;;;0.90;0.57;;;14.10;94.30;;;;;;5034535;28;20021;-75
2021/01/22 09:37:47;;;;;;;2.60;0.50;;;14.70;94.00;;;;;;5035183;28;20045;-76
2021/01/22 09:40:13;;;;;;;1.13;0.82;;;15.10;93.50;;;;;;5040939;28;20077;-76
2021/01/22 09:42:39;;;;;;;1.85;0.70;;;15.90;91.90;;;;;;5041745;28;20053;-73
2021/01/22 09:45:06;;;;;;;2.85;0.43;;;15.60;92.70;;;;;;5033991;28;20057;-72
2021/01/22 09:47:32;;;;;;;1.02;0.57;;;14.10;94.00;;;;;;5034869;28;20479;-74
2021/01/22 09:49:58;;;;;;;1.15;0.50;;;13.80;95.00;;;;;;5042619;28;20127;-73
2021/01/22 09:52:23;;;;;;;0.35;0.35;;;13.50;95.90;;;;;;5054712;28;20411;-75
2021/01/22 09:54:49;;;;;;;2.03;0.43;;;13.30;96.40;;;;;;5054157;28;20510;-72
2021/01/22 09:57:15;;;;;;;2.88;2.67;;;13.00;97.90;;;;;;5054846;28;20021;-73
2021/01/22 09:59:41;;;;;;;0.60;0.60;;;13.10;97.70;;;;;;5054452;28;20400;-70
2021/01/22 10:02:08;;;;;;;1.30;0.70;;;12.90;97.80;;;;;;5054672;28;20075;-73
2021/01/22 10:04:37;;;;;;;1.58;0.80;;;12.70;98.20;;;;;;5053278;28;20399;-71
2021/01/22 10:07:04;;;;;;;0.70;0.57;;;12.80;98.50;;;;;;5053866;28;20093;-71
2021/01/22 10:09:30;;;;;;;1.17;0.52;;;12.70;98.50;;;;;;5053763;28;20024;-70
2021/01/22 10:11:56;;;;;;;0.50;0.50;;;13.20;97.90;;;;;;5048507;28;20017;-70
2021/01/22 10:14:21;;;;;;;2.72;0.80;;;13.30;97.50;;;;;;5032656;28;20036;-71
2021/01/22 10:16:47;;;;;;;1.88;0.68;;;13.20;97.80;;;;;;5033245;28;20029;-69
2021/01/22 10:19:13;;;;;;;0.30;0.30;;;13.10;98.00;;;;;;5035955;28;20026;-70
2021/01/22 10:21:38;;;;;;;1.48;0.70;;;13.70;96.80;;;;;;5053185;28;20028;-72
2021/01/22 10:24:04;;;;;;;1.55;0.52;;;14.30;96.40;;;;;;5052659;28;20061;-70
2021/01/22 10:26:30;;;;;;;1.55;0.60;;;14.70;95.30;;;;;;5053138;28;20025;-70
2021/01/22 10:28:56;;;;;;;2.92;0.57;;;15.00;94.40;;;;;;5051840;28;20410;-70
2021/01/22 10:31:22;;;;;;;0.98;0.60;;;16.30;93.70;;;;;;5053090;28;20033;-70
2021/01/22 10:33:48;;;;;;;0.82;0.55;;;16.90;91.60;;;;;;5052401;28;20056;-71
2021/01/22 10:36:15;;;;;;;1.45;0.60;;;18.80;90.10;;;;;;5052747;28;20048;-72
2021/01/22 10:38:41;;;;;;;2.25;0.63;;;21.00;79.80;;;;;;5052405;28;20053;-71
2021/01/22 10:41:08;;;;;;;1.85;0.38;;;22.00;75.00;;;;;;5052663;28;20071;-71
2021/01/22 10:43:34;;;;;;;1.05;0.52;;;21.70;72.20;;;;;;5033952;28;20029;-70
2021/01/22 10:45:59;;;;;;;0.65;0.50;;;21.30;74.70;;;;;;5033079;28;20036;-70
2021/01/22 10:48:26;;;;;;;0.70;0.70;;;21.90;70.50;;;;;;5033132;28;20063;-72
2021/01/22 10:50:52;;;;;;;2.72;0.73;;;23.10;66.60;;;;;;5049195;28;20107;-69
2021/01/22 10:53:18;;;;;;;0.40;0.40;;;25.00;61.50;;;;;;5052833;28;20104;-72
2021/01/22 10:55:44;;;;;;;1.10;0.30;;;26.70;58.40;;;;;;5053774;28;20055;-75
2021/01/22 10:58:10;;;;;;;1.20;0.50;;;27.40;53.70;;;;;;5054275;28;20025;-72
2021/01/22 11:00:36;;;;;;;2.05;0.30;;;27.90;50.60;;;;;;5054630;28;20021;-72
2021/01/22 11:03:03;;;;;;;0.80;0.50;;;27.50;50.20;;;;;;5051370;28;20025;-71
2021/01/22 11:05:28;;;;;;;1.40;0.70;;;27.50;48.60;;;;;;5053208;28;20017;-72
2021/01/22 11:07:54;;;;;;;1.08;0.60;;;24.40;52.20;;;;;;5051777;28;20044;-71
2021/01/22 11:10:20;;;;;;;2.45;0.57;;;22.80;55.20;;;;;;5052807;28;20039;-71
2021/01/22 11:12:47;;;;;;;2.10;0.60;;;20.80;58.90;;;;;;5040464;28;20036;-70
2021/01/22 11:15:13;;;;;;;3.60;0.57;;;19.80;61.10;;;;;;5032301;28;20538;-74
2021/01/22 11:17:39;;;;;;;1.42;0.30;;;21.20;59.00;;;;;;5031673;28;20037;-76
2021/01/22 11:20:05;;;;;;;3.17;0.55;;;20.20;58.90;;;;;;5042157;28;20029;-73
2021/01/22 11:22:32;;;;;;;1.35;0.30;;;19.40;61.70;;;;;;5052449;28;20142;-74
2021/01/22 11:24:58;;;;;;;0.40;0.30;;;18.60;65.20;;;;;;5052711;28;20024;-75
2021/01/22 11:27:24;;;;;;;2.97;0.60;;;18.20;66.40;;;;;;5051835;28;20021;-72
2021/01/22 11:29:50;;;;;;;3.17;0.40;;;18.00;66.20;;;;;;5052307;28;20513;-75
2021/01/22 11:32:16;;;;;;;1.58;0.38;;;17.70;67.40;;;;;;5053103;28;20592;-74
2021/01/22 11:34:42;;;;;;;1.50;0.50;;;17.50;67.80;;;;;;5051511;28;20431;-71
2021/01/22 11:37:07;;;;;;;3.22;0.40;;;17.60;69.80;;;;;;5052647;28;20021;-74
2021/01/22 11:39:35;;;;;;;1.33;0.52;;;17.80;69.20;;;;;;5038207;28;20059;-74
2021/01/22 11:42:03;;;;;;;1.10;0.40;;;18.30;67.00;;;;;;5047162;28;20022;-72
2021/01/22 11:44:28;;;;;;;0.40;0.30;;;18.00;66.20;;;;;;5032218;28;20028;-73
2021/01/22 11:46:54;;;;;;;0.40;0.40;;;18.00;67.70;;;;;;5032793;28;20026;-73
2021/01/22 11:49:20;;;;;;;5.63;0.57;;;18.20;67.10;;;;;;5032337;28;20100;-73
2021/01/22 11:51:45;;;;;;;2.50;0.60;;;19.40;64.70;;;;;;5032173;28;20113;-72
2021/01/22 11:54:11;;;;;;;0.50;0.45;;;20.20;61.40;;;;;;5032683;28;20026;-72
2021/01/22 11:56:36;;;;;;;0.28;0.20;;;21.90;59.60;;;;;;5034345;28;20029;-72
2021/01/22 11:59:02;;;;;;;0.55;0.40;;;23.10;55.90;;;;;;5050035;28;20024;-71
2021/01/22 12:01:28;;;;;;;0.55;0.40;;;23.20;55.40;;;;;;5052927;28;20036;-73
2021/01/22 12:03:54;;;;;;;1.15;0.30;;;22.60;55.80;;;;;;5051249;28;20028;-71
2021/01/22 12:06:19;;;;;;;2.70;0.50;;;21.10;56.70;;;;;;5054220;28;20116;-73
2021/01/22 12:08:45;;;;;;;4.80;0.77;;;20.90;57.30;;;;;;5054211;28;20036;-72
2021/01/22 12:11:11;;;;;;;1.65;0.75;;;19.70;59.60;;;;;;5053490;28;20120;-75
2021/01/22 12:13:36;;;;;;;0.63;0.32;;;20.60;58.10;;;;;;5032999;28;20144;-74
2021/01/22 12:16:03;;;;;;;3.80;0.30;;;20.80;57.50;;;;;;5032286;28;20032;-73
2021/01/22 12:18:28;;;;;;;2.28;0.50;;;21.10;58.20;;;;;;5031389;28;20025;-73
2021/01/22 12:20:54;;;;;;;4.68;0.65;;;20.90;57.10;;;;;;5032945;28;20033;-73
2021/01/22 12:23:20;;;;;;;1.02;0.45;;;21.30;56.80;;;;;;5032426;28;20030;-73
2021/01/22 12:28:23;;;;;;;0.32;0.32;;;21.80;54.00;;;;;;5013894;28;20042;-74
2021/01/22 12:30:48;;;;;;;1.90;0.50;;;22.30;52.90;;;;;;5014156;28;20076;-67
2021/01/22 12:33:14;;;;;;;0.90;0.50;;;21.90;55.00;;;;;;5012773;28;20025;-69
2021/01/22 12:35:40;;;;;;;1.48;0.55;;;20.90;54.80;;;;;;5027558;28;20026;-69
2021/01/22 12:38:06;;;;;;;4.15;0.60;;;19.70;57.90;;;;;;5012034;28;20029;-68
2021/01/22 12:40:31;;;;;;;0.88;0.50;;;18.40;61.00;;;;;;5020961;28;20040;-68
2021/01/22 12:42:57;;;;;;;0.50;0.40;;;17.90;63.90;;;;;;5030562;28;20132;-69
2021/01/22 12:45:24;;;;;;;2.05;0.50;;;17.40;65.00;;;;;;5031435;28;20079;-69
2021/01/22 12:47:53;;;;;;;0.30;0.30;;;16.50;66.40;;;;;;5028582;28;20029;-71
2021/01/22 12:50:19;;;;;;;0.80;0.50;;;16.10;68.80;;;;;;5027683;28;21502;-68
2021/01/22 12:52:45;;;;;;;1.02;0.40;;;15.80;70.00;;;;;;5030288;28;20057;-69
2021/01/22 12:55:12;;;;;;;2.38;0.35;;;15.50;70.90;;;;;;5030943;28;20025;-70
2021/01/22 12:57:38;;;;;;;1.20;0.50;;;15.30;71.90;;;;;;5001067;28;20037;-70